Time;durP1;ratioP1;P1;durP2;ratioP2;P2;SDS_P1;SDS_P2;PMS_P1;PMS_P2;Temp;Humidity;BMP_temperature;BMP_pressure;BME280_temperature;BME280_humidity;BME280_pressure;Samples;Min_cycle;Max_cycle;Signal;HPM_P1;HPM_P2
2023/12/03 00:00:39;;;;;;;16.10;14.50;;;;;;;0.11;100.00;100832.81;5062143;28;20223;-77
2023/12/03 00:03:05;;;;;;;16.97;14.80;;;;;;;0.11;100.00;100837.88;5063873;28;20260;-76
2023/12/03 00:05:30;;;;;;;16.57;14.63;;;;;;;0.11;100.00;100845.53;5059862;28;20184;-77
2023/12/03 00:07:55;;;;;;;17.27;15.53;;;;;;;0.11;100.00;100836.22;5060383;28;20220;-77
2023/12/03 00:10:21;;;;;;;17.00;15.17;;;;;;;0.12;100.00;100837.09;5061315;28;20223;-77
2023/12/03 00:12:46;;;;;;;15.97;14.10;;;;;;;0.15;100.00;100839.78;5062096;28;20242;-77
2023/12/03 00:15:11;;;;;;;16.47;14.87;;;;;;;0.14;100.00;100835.47;5061934;28;20231;-77
2023/12/03 00:17:37;;;;;;;18.33;16.40;;;;;;;0.12;100.00;100832.00;5061508;28;20299;-76
2023/12/03 00:20:03;;;;;;;16.97;15.17;;;;;;;0.11;100.00;100840.44;5056685;28;20679;-77
2023/12/03 00:22:28;;;;;;;17.33;15.50;;;;;;;0.06;100.00;100841.94;5061097;28;20204;-77
2023/12/03 00:24:54;;;;;;;18.13;15.70;;;;;;;0.04;100.00;100841.84;5061628;28;20207;-76
2023/12/03 00:27:19;;;;;;;17.10;15.40;;;;;;;0.04;100.00;100846.94;5062962;28;20223;-77
2023/12/03 00:29:45;;;;;;;16.60;14.93;;;;;;;0.03;100.00;100846.88;5070677;28;20252;-76
2023/12/03 00:32:10;;;;;;;19.13;16.00;;;;;;;0.04;100.00;100848.63;5064894;28;20234;-77
2023/12/03 00:34:35;;;;;;;17.40;15.03;;;;;;;0.01;100.00;100849.34;5057832;28;20209;-77
2023/12/03 00:37:01;;;;;;;18.40;16.03;;;;;;;-0.02;100.00;100842.47;5060142;28;21030;-77
2023/12/03 00:39:26;;;;;;;18.80;16.30;;;;;;;-0.01;100.00;100851.84;5058379;28;20198;-77
2023/12/03 00:41:51;;;;;;;18.13;15.67;;;;;;;-0.05;100.00;100849.97;5059825;28;20767;-77
2023/12/03 00:44:18;;;;;;;18.80;16.80;;;;;;;-0.07;100.00;100855.78;5059701;28;20730;-77
2023/12/03 00:46:43;;;;;;;17.83;15.60;;;;;;;-0.08;100.00;100854.06;5061440;28;20676;-77
2023/12/03 00:49:10;;;;;;;17.87;15.97;;;;;;;-0.09;100.00;100853.19;5060711;28;20237;-77
2023/12/03 00:51:35;;;;;;;18.73;15.80;;;;;;;-0.10;100.00;100860.75;5057308;28;20298;-76
2023/12/03 00:54:00;;;;;;;16.90;15.10;;;;;;;-0.11;100.00;100866.63;5058476;28;20291;-77
2023/12/03 00:56:26;;;;;;;19.03;15.77;;;;;;;-0.12;100.00;100867.44;5061117;28;20279;-78
2023/12/03 00:58:51;;;;;;;18.40;16.30;;;;;;;-0.13;100.00;100870.78;5060975;28;20192;-77
2023/12/03 01:01:19;;;;;;;18.33;16.37;;;;;;;-0.16;100.00;100871.53;5059908;28;20232;-76
2023/12/03 01:03:44;;;;;;;19.13;16.97;;;;;;;-0.13;100.00;100870.78;5060624;28;20188;-77
2023/12/03 01:06:10;;;;;;;17.47;15.67;;;;;;;-0.15;100.00;100875.81;5058633;28;20203;-77
2023/12/03 01:08:35;;;;;;;19.87;16.07;;;;;;;-0.14;100.00;100876.66;5054835;28;20211;-76
2023/12/03 01:11:04;;;;;;;18.43;16.43;;;;;;;-0.12;100.00;100880.16;5062535;28;20207;-76
2023/12/03 01:13:29;;;;;;;18.43;15.97;;;;;;;-0.16;100.00;100868.97;5060285;28;20202;-76
2023/12/03 01:15:55;;;;;;;17.37;15.57;;;;;;;-0.17;100.00;100877.41;5060069;28;20241;-78
2023/12/03 01:18:20;;;;;;;19.77;16.33;;;;;;;-0.21;100.00;100871.31;5059852;28;20190;-77
2023/12/03 01:20:45;;;;;;;17.17;15.37;;;;;;;-0.25;100.00;100868.59;5060879;28;20274;-78
2023/12/03 01:23:11;;;;;;;19.10;15.87;;;;;;;-0.32;100.00;100885.25;5062248;28;20549;-77
2023/12/03 01:25:36;;;;;;;18.87;16.87;;;;;;;-0.41;100.00;100883.16;5057845;28;20222;-77
2023/12/03 01:28:01;;;;;;;18.30;15.93;;;;;;;-0.49;100.00;100884.47;5060760;28;20204;-77
2023/12/03 01:30:26;;;;;;;18.53;15.87;;;;;;;-0.57;100.00;100888.34;5053217;28;20225;-77
2023/12/03 01:32:52;;;;;;;17.87;15.73;;;;;;;-0.65;100.00;100890.53;5060509;28;20191;-76
2023/12/03 01:35:17;;;;;;;18.50;16.07;;;;;;;-0.73;100.00;100895.25;5060663;28;20179;-77
2023/12/03 01:37:43;;;;;;;18.27;16.03;;;;;;;-0.80;100.00;100896.63;5062460;28;20192;-78
2023/12/03 01:40:09;;;;;;;19.43;16.03;;;;;;;-0.87;100.00;100898.81;5066460;28;20250;-78
2023/12/03 01:42:34;;;;;;;19.17;16.77;;;;;;;-0.93;100.00;100899.41;5059172;28;20183;-77
2023/12/03 01:45:00;;;;;;;17.70;15.33;;;;;;;-0.97;100.00;100907.66;5060655;28;20187;-78
2023/12/03 01:47:26;;;;;;;19.33;17.23;;;;;;;-1.04;100.00;100913.25;5059631;28;20188;-77
2023/12/03 01:49:52;;;;;;;21.13;17.27;;;;;;;-1.12;100.00;100906.13;5060238;28;20652;-78
2023/12/03 01:52:17;;;;;;;22.27;17.63;;;;;;;-1.18;100.00;100910.91;5060325;28;20238;-77
2023/12/03 01:54:44;;;;;;;19.70;17.37;;;;;;;-1.25;100.00;100908.88;5062023;28;20230;-77
2023/12/03 01:57:10;;;;;;;19.90;16.70;;;;;;;-1.30;100.00;100908.66;5059859;28;20184;-77
2023/12/03 01:59:36;;;;;;;20.67;18.23;;;;;;;-1.33;100.00;100911.03;5060219;28;20189;-77
2023/12/03 02:02:04;;;;;;;19.63;17.03;;;;;;;-1.34;100.00;100921.09;5058842;28;20211;-78
2023/12/03 02:04:29;;;;;;;19.90;16.87;;;;;;;-1.34;100.00;100913.47;5058811;28;20267;-77
2023/12/03 02:06:55;;;;;;;18.90;16.47;;;;;;;-1.31;100.00;100926.34;5058718;28;20194;-77
2023/12/03 02:09:21;;;;;;;18.77;16.50;;;;;;;-1.30;100.00;100923.91;5064613;28;20236;-77
2023/12/03 02:11:46;;;;;;;20.30;17.23;;;;;;;-1.28;100.00;100917.19;5059281;28;20201;-77
2023/12/03 02:14:12;;;;;;;19.97;16.13;;;;;;;-1.27;100.00;100918.09;5062569;28;20198;-77
2023/12/03 02:16:38;;;;;;;20.10;16.83;;;;;;;-1.30;100.00;100916.28;5058126;28;21072;-77
2023/12/03 02:19:03;;;;;;;19.90;16.80;;;;;;;-1.33;100.00;100918.66;5057781;28;20267;-77
2023/12/03 02:21:29;;;;;;;19.37;16.60;;;;;;;-1.40;100.00;100917.47;5060409;28;20212;-77
2023/12/03 02:23:55;;;;;;;19.00;15.70;;;;;;;-1.43;100.00;100927.47;5072792;28;20190;-77
2023/12/03 02:26:20;;;;;;;19.13;15.40;;;;;;;-1.47;100.00;100927.25;5068004;28;20249;-77
2023/12/03 02:28:46;;;;;;;17.73;14.40;;;;;;;-1.51;100.00;100921.13;5060895;28;20183;-78
2023/12/03 02:31:11;;;;;;;17.23;15.27;;;;;;;-1.55;100.00;100932.81;5058005;28;20619;-77
2023/12/03 02:33:37;;;;;;;17.40;14.43;;;;;;;-1.64;100.00;100931.47;5059770;28;20261;-77
2023/12/03 02:36:03;;;;;;;17.73;15.40;;;;;;;-1.71;100.00;100938.78;5059576;28;20292;-78
2023/12/03 02:38:29;;;;;;;18.83;15.17;;;;;;;-1.70;100.00;100938.00;5058902;28;20786;-78
2023/12/03 02:40:56;;;;;;;18.13;15.07;;;;;;;-1.70;100.00;100932.91;5058639;28;20202;-77
2023/12/03 02:43:21;;;;;;;17.67;14.47;;;;;;;-1.73;100.00;100937.81;5059796;28;20183;-77
2023/12/03 02:45:47;;;;;;;19.80;15.70;;;;;;;-1.76;100.00;100934.25;5061437;28;20252;-77
2023/12/03 02:48:12;;;;;;;16.43;14.43;;;;;;;-1.84;100.00;100924.56;5057338;28;20690;-77
2023/12/03 02:50:37;;;;;;;16.43;14.27;;;;;;;-1.87;100.00;100933.69;5055514;28;21031;-77
2023/12/03 02:53:03;;;;;;;18.63;15.30;;;;;;;-2.00;100.00;100938.13;5058958;28;20636;-77
2023/12/03 02:55:28;;;;;;;19.30;16.37;;;;;;;-2.02;100.00;100934.66;5054991;28;20805;-77
2023/12/03 02:57:53;;;;;;;19.07;16.07;;;;;;;-2.02;100.00;100936.28;5060692;28;20187;-78
2023/12/03 03:00:19;;;;;;;19.33;15.23;;;;;;;-2.14;100.00;100936.53;5057256;28;20278;-77
2023/12/03 03:02:44;;;;;;;18.53;15.90;;;;;;;-2.19;100.00;100931.19;5057209;28;20194;-77
2023/12/03 03:05:10;;;;;;;18.60;14.53;;;;;;;-2.21;100.00;100937.88;5064029;28;20236;-77
2023/12/03 03:07:35;;;;;;;18.03;14.57;;;;;;;-2.23;100.00;100939.47;5062064;28;20234;-77
2023/12/03 03:10:00;;;;;;;16.53;14.13;;;;;;;-2.24;100.00;100937.72;5063681;28;20688;-77
2023/12/03 03:12:25;;;;;;;17.50;14.70;;;;;;;-2.27;100.00;100935.00;5058861;28;20174;-77
2023/12/03 03:14:51;;;;;;;18.17;15.30;;;;;;;-2.30;100.00;100932.31;5064503;28;20207;-77
2023/12/03 03:17:16;;;;;;;17.40;13.93;;;;;;;-2.31;100.00;100933.09;5060340;28;20190;-77
2023/12/03 03:19:43;;;;;;;15.87;14.00;;;;;;;-2.34;100.00;100937.97;5064360;28;20182;-77
2023/12/03 03:22:11;;;;;;;17.47;14.70;;;;;;;-2.38;100.00;100931.88;5064489;28;20215;-77
2023/12/03 03:24:37;;;;;;;16.43;14.23;;;;;;;-2.37;100.00;100945.44;5056376;28;20748;-77
2023/12/03 03:27:02;;;;;;;17.63;14.57;;;;;;;-2.38;100.00;100941.16;5063968;28;20188;-77
2023/12/03 03:29:27;;;;;;;15.87;13.77;;;;;;;-2.40;100.00;100946.13;5065515;28;20198;-77
2023/12/03 03:31:53;;;;;;;15.60;13.67;;;;;;;-2.43;100.00;100946.00;5065108;28;20244;-77
2023/12/03 03:34:18;;;;;;;17.80;14.17;;;;;;;-2.43;100.00;100947.63;5062183;28;20924;-78
2023/12/03 03:36:43;;;;;;;16.43;14.17;;;;;;;-2.47;100.00;100955.06;5062988;28;20188;-76
2023/12/03 03:39:08;;;;;;;17.00;13.67;;;;;;;-2.49;100.00;100959.19;5061318;28;20220;-77
2023/12/03 03:41:34;;;;;;;16.93;13.43;;;;;;;-2.51;100.00;100955.72;5060904;28;20368;-77
2023/12/03 03:43:59;;;;;;;19.50;14.27;;;;;;;-2.53;100.00;100956.41;5061248;28;20189;-77
2023/12/03 03:46:24;;;;;;;18.10;14.47;;;;;;;-2.54;100.00;100962.25;5065970;28;20184;-76
2023/12/03 03:48:50;;;;;;;17.73;14.17;;;;;;;-2.56;100.00;100962.19;5056969;28;20851;-76
2023/12/03 03:51:15;;;;;;;16.40;13.73;;;;;;;-2.57;100.00;100970.56;5059797;28;20194;-76
2023/12/03 03:53:40;;;;;;;20.53;16.20;;;;;;;-2.59;100.00;100964.53;5061466;28;20340;-77
2023/12/03 03:56:08;;;;;;;16.77;14.00;;;;;;;-2.62;100.00;100959.28;5064014;28;20184;-78
2023/12/03 03:58:33;;;;;;;18.10;15.03;;;;;;;-2.64;100.00;100966.81;5057272;28;20193;-78
2023/12/03 04:00:58;;;;;;;16.57;14.53;;;;;;;-2.67;100.00;100960.72;5062411;28;20207;-77
2023/12/03 04:03:24;;;;;;;19.57;15.10;;;;;;;-2.67;100.00;100965.78;5056861;28;20195;-76
2023/12/03 04:05:49;;;;;;;17.70;13.83;;;;;;;-2.68;100.00;100964.91;5058178;28;20197;-77
2023/12/03 04:08:14;;;;;;;18.53;14.73;;;;;;;-2.68;100.00;100972.50;5061293;28;20233;-78
2023/12/03 04:10:40;;;;;;;18.63;14.10;;;;;;;-2.69;100.00;100978.34;5057624;28;22186;-77
2023/12/03 04:13:05;;;;;;;19.33;14.70;;;;;;;-2.72;100.00;100984.91;5061582;28;20320;-77
2023/12/03 04:15:31;;;;;;;18.87;14.37;;;;;;;-2.77;100.00;100979.59;5065238;28;20183;-77
2023/12/03 04:17:57;;;;;;;16.50;13.37;;;;;;;-2.81;100.00;100995.41;5062346;28;20250;-77
2023/12/03 04:20:22;;;;;;;18.03;13.83;;;;;;;-2.87;100.00;100990.00;5061367;28;20303;-76
2023/12/03 04:22:48;;;;;;;15.93;13.00;;;;;;;-2.91;100.00;100992.38;5071875;28;20204;-76
2023/12/03 04:25:14;;;;;;;16.00;12.23;;;;;;;-2.95;100.00;100990.44;5062538;28;20198;-78
2023/12/03 04:27:39;;;;;;;14.00;12.40;;;;;;;-2.99;100.00;100992.72;5065413;28;20200;-75
2023/12/03 04:30:05;;;;;;;15.57;12.57;;;;;;;-3.01;100.00;100996.81;5060864;28;20805;-78
2023/12/03 04:32:30;;;;;;;15.73;13.40;;;;;;;-3.05;100.00;100995.75;5057412;28;20186;-77
2023/12/03 04:34:56;;;;;;;16.67;14.43;;;;;;;-3.09;100.00;101001.44;5057370;28;20202;-77
2023/12/03 04:37:21;;;;;;;15.60;13.03;;;;;;;-3.11;100.00;101003.88;5042910;28;20190;-77
2023/12/03 04:39:46;;;;;;;16.63;13.57;;;;;;;-3.14;100.00;101003.69;5060078;28;20190;-76
2023/12/03 04:42:11;;;;;;;15.77;13.07;;;;;;;-3.15;100.00;101001.94;5059819;28;20283;-77
2023/12/03 04:44:37;;;;;;;16.17;12.73;;;;;;;-3.17;100.00;101008.59;5062651;28;20178;-77
2023/12/03 04:47:02;;;;;;;15.00;12.53;;;;;;;-3.16;100.00;101011.97;5059817;28;20190;-77
2023/12/03 04:49:27;;;;;;;16.43;13.03;;;;;;;-3.16;100.00;101011.97;5058611;28;20182;-77
2023/12/03 04:51:53;;;;;;;15.77;13.00;;;;;;;-3.15;100.00;101014.63;5060933;28;20267;-77
2023/12/03 04:54:18;;;;;;;14.73;12.13;;;;;;;-3.11;100.00;101010.59;5056567;28;20200;-78
2023/12/03 04:56:43;;;;;;;14.37;11.60;;;;;;;-3.06;100.00;101017.66;5055234;28;20276;-78
2023/12/03 04:59:09;;;;;;;15.53;12.43;;;;;;;-3.02;100.00;101013.66;5058585;28;20218;-77
2023/12/03 05:01:34;;;;;;;15.67;12.03;;;;;;;-2.99;100.00;101015.50;5051691;28;20636;-78
2023/12/03 05:04:00;;;;;;;14.97;11.57;;;;;;;-2.98;100.00;101020.66;5056577;28;20182;-77
2023/12/03 05:06:25;;;;;;;15.83;12.37;;;;;;;-2.97;100.00;101024.06;5054839;28;20693;-77
2023/12/03 05:08:50;;;;;;;12.97;10.53;;;;;;;-2.95;100.00;101019.97;5057138;28;20182;-78
2023/12/03 05:11:16;;;;;;;14.50;11.77;;;;;;;-2.94;100.00;101019.16;5055020;28;20206;-76
2023/12/03 05:13:41;;;;;;;16.07;13.57;;;;;;;-2.92;100.00;101020.13;5061352;28;20300;-77
2023/12/03 05:16:07;;;;;;;14.90;12.97;;;;;;;-2.92;100.00;101010.00;5060776;28;20272;-78
2023/12/03 05:18:33;;;;;;;14.47;12.40;;;;;;;-2.89;100.00;101012.69;5059596;28;20186;-76
2023/12/03 05:20:59;;;;;;;14.77;12.77;;;;;;;-2.92;100.00;101015.06;5058529;28;20256;-78
2023/12/03 05:23:25;;;;;;;15.07;12.43;;;;;;;-2.88;100.00;101011.06;5056253;28;20186;-78
2023/12/03 05:25:51;;;;;;;15.07;12.73;;;;;;;-2.87;100.00;101010.28;5060994;28;20293;-77
2023/12/03 05:28:16;;;;;;;13.33;11.30;;;;;;;-2.98;100.00;101004.59;5064151;28;20186;-76
2023/12/03 05:30:42;;;;;;;14.93;12.03;;;;;;;-3.01;100.00;101014.53;5060603;28;20201;-77
2023/12/03 05:33:07;;;;;;;13.40;11.53;;;;;;;-3.03;100.00;101018.63;5060125;28;20628;-77
2023/12/03 05:35:32;;;;;;;14.30;11.80;;;;;;;-3.07;100.00;101012.53;5061607;28;20235;-77
2023/12/03 05:37:58;;;;;;;14.10;11.20;;;;;;;-3.09;100.00;101012.41;5064475;28;20266;-77
2023/12/03 05:40:24;;;;;;;13.40;11.80;;;;;;;-3.11;100.00;101024.16;5060191;28;20270;-77
2023/12/03 05:42:49;;;;;;;14.30;11.47;;;;;;;-3.12;100.00;101021.50;5060876;28;20182;-77
2023/12/03 05:45:14;;;;;;;14.30;12.00;;;;;;;-3.14;100.00;101021.44;5060344;28;20202;-75
2023/12/03 05:47:40;;;;;;;16.10;13.07;;;;;;;-3.13;100.00;101024.81;5061471;28;20186;-77
2023/12/03 05:50:08;;;;;;;14.93;12.37;;;;;;;-3.15;100.00;101022.22;5061466;28;20209;-77
2023/12/03 05:52:33;;;;;;;16.33;13.30;;;;;;;-3.10;100.00;101030.94;5058867;28;20301;-77
2023/12/03 05:54:59;;;;;;;17.07;13.43;;;;;;;-3.12;100.00;101035.06;5060917;28;20328;-77
2023/12/03 05:57:24;;;;;;;15.37;12.93;;;;;;;-3.17;100.00;101036.44;5058588;28;20701;-76
2023/12/03 05:59:50;;;;;;;16.40;13.50;;;;;;;-3.18;100.00;101031.28;5057556;28;20190;-76
2023/12/03 06:02:16;;;;;;;17.20;13.97;;;;;;;-3.14;100.00;101039.16;5055560;28;20197;-76
2023/12/03 06:04:42;;;;;;;17.07;14.77;;;;;;;-3.22;100.00;101025.16;5057480;28;20553;-76
2023/12/03 06:07:07;;;;;;;16.47;13.90;;;;;;;-3.24;100.00;101021.66;5058657;28;20201;-76
2023/12/03 06:09:32;;;;;;;17.80;13.90;;;;;;;-3.24;100.00;101026.72;5059993;28;20299;-76
2023/12/03 06:11:57;;;;;;;18.47;14.97;;;;;;;-3.13;100.00;101019.75;5059165;28;20202;-77
2023/12/03 06:14:23;;;;;;;18.07;14.37;;;;;;;-3.14;100.00;101023.97;5057000;28;20218;-74
2023/12/03 06:16:48;;;;;;;15.67;13.93;;;;;;;-3.21;100.00;101026.91;5070963;28;20296;-77
2023/12/03 06:19:13;;;;;;;18.67;15.20;;;;;;;-3.24;100.00;101025.06;5061945;28;20280;-76
2023/12/03 06:21:39;;;;;;;18.03;15.40;;;;;;;-3.23;100.00;101016.69;5062884;28;20213;-77
2023/12/03 06:24:05;;;;;;;22.70;19.57;;;;;;;-3.22;100.00;101026.03;5055113;28;20659;-76
2023/12/03 06:26:31;;;;;;;25.80;22.87;;;;;;;-3.21;100.00;101021.84;5058285;28;20178;-76
2023/12/03 06:28:56;;;;;;;24.80;20.40;;;;;;;-3.20;100.00;101033.72;5054735;28;20228;-78
2023/12/03 06:31:21;;;;;;;26.57;23.00;;;;;;;-3.20;100.00;101030.31;5055252;28;20202;-76
2023/12/03 06:33:47;;;;;;;25.23;21.43;;;;;;;-3.20;100.00;101035.38;5062226;28;20764;-76
2023/12/03 06:36:12;;;;;;;23.17;19.03;;;;;;;-3.21;100.00;101037.03;5071575;28;20213;-77
2023/12/03 06:38:38;;;;;;;24.07;19.23;;;;;;;-3.22;100.00;101030.22;5062055;28;20191;-77
2023/12/03 06:41:03;;;;;;;22.83;18.93;;;;;;;-3.21;100.00;101031.97;5055651;28;20232;-77
2023/12/03 06:43:28;;;;;;;22.77;19.20;;;;;;;-3.22;100.00;101031.09;5061672;28;20239;-77
2023/12/03 06:45:54;;;;;;;25.13;20.77;;;;;;;-3.23;100.00;101042.00;5061655;28;20940;-76
2023/12/03 06:48:21;;;;;;;21.93;18.60;;;;;;;-3.22;100.00;101045.41;5059515;28;20186;-76
2023/12/03 06:50:46;;;;;;;19.13;16.43;;;;;;;-3.24;100.00;101041.91;5056130;28;20677;-76
2023/12/03 06:53:11;;;;;;;21.17;16.83;;;;;;;-3.25;100.00;101037.63;5050696;28;20182;-77
2023/12/03 06:55:37;;;;;;;21.17;17.33;;;;;;;-3.27;100.00;101037.53;5061137;28;20202;-76
2023/12/03 06:58:02;;;;;;;17.67;14.60;;;;;;;-3.28;100.00;101038.31;5055233;28;20194;-76
2023/12/03 07:00:27;;;;;;;17.97;14.87;;;;;;;-3.27;100.00;101046.81;5064309;28;20869;-76
2023/12/03 07:02:53;;;;;;;16.60;13.77;;;;;;;-3.28;100.00;101050.97;5067546;28;20196;-76
2023/12/03 07:05:18;;;;;;;19.87;14.83;;;;;;;-3.29;100.00;101051.75;5057860;28;20251;-77
2023/12/03 07:07:51;;;;;;;15.43;12.90;;;;;;;-3.28;100.00;101057.72;5061080;28;20197;-76
2023/12/03 07:10:16;;;;;;;18.77;14.77;;;;;;;-3.28;100.00;101060.25;5059215;28;20280;-75
2023/12/03 07:12:42;;;;;;;19.47;15.70;;;;;;;-3.27;100.00;101059.47;5058414;28;20178;-77
2023/12/03 07:15:07;;;;;;;22.17;17.77;;;;;;;-3.25;100.00;101055.34;5059191;28;20240;-76
2023/12/03 07:17:33;;;;;;;19.80;15.47;;;;;;;-3.23;100.00;101054.66;5062241;28;20549;-74
2023/12/03 07:19:58;;;;;;;18.90;14.23;;;;;;;-3.18;100.00;101056.59;5061842;28;20262;-76
2023/12/03 07:22:23;;;;;;;18.73;14.93;;;;;;;-3.14;100.00;101055.97;5065603;28;20265;-75
2023/12/03 07:24:49;;;;;;;17.80;13.77;;;;;;;-3.15;100.00;101060.19;5059873;28;20185;-76
2023/12/03 07:27:16;;;;;;;20.33;15.50;;;;;;;-3.12;100.00;101060.38;5065440;28;20715;-76
2023/12/03 07:29:42;;;;;;;18.60;15.27;;;;;;;-3.02;100.00;101061.75;5064246;28;20186;-76
2023/12/03 07:32:07;;;;;;;20.93;16.03;;;;;;;-2.96;100.00;101062.13;5061610;28;20206;-76
2023/12/03 07:34:33;;;;;;;20.83;16.03;;;;;;;-2.87;100.00;101063.47;5063140;28;20213;-75
2023/12/03 07:36:58;;;;;;;20.77;17.97;;;;;;;-2.84;100.00;101069.59;5065272;28;20196;-77
2023/12/03 07:39:23;;;;;;;22.10;16.87;;;;;;;-2.77;100.00;101074.19;5063438;28;20174;-77
2023/12/03 07:41:53;;;;;;;19.53;15.10;;;;;;;-2.65;100.00;101066.44;5062119;28;20202;-75
2023/12/03 07:44:19;;;;;;;19.97;15.93;;;;;;;-2.57;100.00;101063.47;5062839;28;20178;-76
2023/12/03 07:46:45;;;;;;;19.43;15.87;;;;;;;-2.47;100.00;101066.59;5064013;28;20255;-77
2023/12/03 07:49:10;;;;;;;19.60;16.27;;;;;;;-2.38;100.00;101066.25;5056363;28;20212;-75
2023/12/03 07:51:35;;;;;;;17.33;15.03;;;;;;;-2.28;100.00;101069.31;5058228;28;20305;-76
2023/12/03 07:54:01;;;;;;;17.83;14.17;;;;;;;-2.18;100.00;101071.56;5053721;28;20253;-76
2023/12/03 07:56:40;;;;;;;23.13;17.97;;;;;;;-2.08;100.00;101075.50;5055418;28;20194;-76
2023/12/03 07:59:05;;;;;;;19.47;15.73;;;;;;;-2.01;100.00;101072.47;5058442;28;20190;-76
2023/12/03 08:01:30;;;;;;;17.07;14.63;;;;;;;-1.93;100.00;101076.31;5059704;28;20216;-76
2023/12/03 08:03:56;;;;;;;16.33;14.33;;;;;;;-1.87;100.00;101071.56;5056109;28;20178;-77
2023/12/03 08:06:22;;;;;;;16.90;14.33;;;;;;;-1.79;100.00;101073.66;5062706;28;20196;-76
2023/12/03 08:08:47;;;;;;;15.83;13.80;;;;;;;-1.73;100.00;101086.66;5057653;28;20236;-76
2023/12/03 08:11:13;;;;;;;16.30;12.90;;;;;;;-1.65;100.00;101097.22;5071468;28;20201;-77
2023/12/03 08:13:38;;;;;;;19.90;15.30;;;;;;;-1.58;100.00;101096.78;5095407;28;20195;-77
2023/12/03 08:16:04;;;;;;;20.27;16.10;;;;;;;-1.49;100.00;101111.63;5072876;28;20236;-77
2023/12/03 08:18:31;;;;;;;23.70;16.57;;;;;;;-1.44;100.00;101111.06;5065483;28;20589;-77
2023/12/03 08:20:56;;;;;;;19.80;15.60;;;;;;;-1.36;100.00;101105.53;5060714;28;20914;-76
2023/12/03 08:23:21;;;;;;;19.50;14.50;;;;;;;-1.27;100.00;101111.09;5057919;28;20170;-76
2023/12/03 08:25:47;;;;;;;18.33;13.80;;;;;;;-1.24;100.00;101093.47;5056020;28;20180;-76
2023/12/03 08:28:12;;;;;;;16.13;13.10;;;;;;;-1.18;100.00;101098.00;5057015;28;20664;-76
2023/12/03 08:30:38;;;;;;;15.10;12.60;;;;;;;-1.15;100.00;101106.66;5055728;28;20711;-76
2023/12/03 08:33:03;;;;;;;14.37;11.83;;;;;;;-1.10;100.00;101107.78;5058803;28;20284;-76
2023/12/03 08:35:31;;;;;;;15.27;13.67;;;;;;;-1.03;100.00;101111.50;5054269;28;20184;-77
2023/12/03 08:37:57;;;;;;;22.43;19.20;;;;;;;-0.99;100.00;101099.81;5056776;28;20181;-76
2023/12/03 08:40:22;;;;;;;37.70;29.40;;;;;;;-0.95;100.00;101102.59;5055307;28;20234;-77
2023/12/03 08:42:47;;;;;;;50.30;38.80;;;;;;;-0.90;100.00;101104.50;5059510;28;20605;-76
2023/12/03 08:45:13;;;;;;;23.57;20.53;;;;;;;-0.85;100.00;101095.44;5059661;28;20207;-78
2023/12/03 08:47:38;;;;;;;21.17;16.90;;;;;;;-0.84;100.00;101092.97;5057841;28;20209;-77
2023/12/03 08:50:04;;;;;;;18.13;14.67;;;;;;;-0.80;100.00;101091.44;5057917;28;20674;-76
2023/12/03 08:52:29;;;;;;;17.30;15.60;;;;;;;-0.78;100.00;101092.41;5054949;28;22307;-75
2023/12/03 08:54:55;;;;;;;25.90;23.47;;;;;;;-0.74;100.00;101093.44;5051629;28;20206;-76
2023/12/03 08:57:20;;;;;;;22.40;20.43;;;;;;;-0.68;100.00;101096.28;5056301;28;20230;-75
2023/12/03 08:59:47;;;;;;;20.97;18.97;;;;;;;-0.66;100.00;101087.94;5057685;28;20276;-76
2023/12/03 09:02:12;;;;;;;16.90;15.33;;;;;;;-0.59;100.00;101095.88;5054083;28;20202;-77
2023/12/03 09:04:38;;;;;;;16.40;14.70;;;;;;;-0.54;100.00;101096.97;5054833;28;20171;-76
2023/12/03 09:07:03;;;;;;;16.03;14.33;;;;;;;-0.52;100.00;101091.16;5059694;28;20310;-75
2023/12/03 09:09:29;;;;;;;14.87;13.23;;;;;;;-0.47;100.00;101089.72;5062714;28;20179;-76
2023/12/03 09:11:54;;;;;;;13.30;11.63;;;;;;;-0.42;100.00;101096.69;5061008;28;20195;-76
2023/12/03 09:14:19;;;;;;;17.80;12.70;;;;;;;-0.37;100.00;101107.97;5060467;28;20206;-76
2023/12/03 09:16:44;;;;;;;15.60;13.50;;;;;;;-0.35;100.00;101093.66;5058665;28;20198;-76
2023/12/03 09:19:10;;;;;;;15.03;13.03;;;;;;;-0.32;100.00;101094.69;5056911;28;20201;-76
2023/12/03 09:21:35;;;;;;;13.37;11.97;;;;;;;-0.31;100.00;101098.97;5058979;28;20294;-76
2023/12/03 09:24:00;;;;;;;15.27;13.50;;;;;;;-0.26;100.00;101095.78;5058546;28;20265;-77
2023/12/03 09:26:26;;;;;;;13.53;11.80;;;;;;;-0.25;100.00;101098.38;5062301;28;20188;-75
2023/12/03 09:28:51;;;;;;;13.70;12.20;;;;;;;-0.22;100.00;101098.53;5060372;28;20189;-76
2023/12/03 09:31:16;;;;;;;13.60;12.17;;;;;;;-0.18;100.00;101097.91;5054748;28;20382;-76
2023/12/03 09:33:42;;;;;;;12.93;11.63;;;;;;;-0.12;100.00;101091.34;5058260;28;20220;-76
2023/12/03 09:36:07;;;;;;;15.23;13.07;;;;;;;-0.08;100.00;101098.31;5061322;28;20195;-76
2023/12/03 09:38:34;;;;;;;14.40;12.90;;;;;;;-0.07;100.00;101102.63;5057180;28;20188;-77
2023/12/03 09:41:02;;;;;;;14.37;12.80;;;;;;;-0.06;100.00;101112.84;5055017;28;20756;-77
2023/12/03 09:43:30;;;;;;;15.50;13.90;;;;;;;-0.03;100.00;101112.16;5054757;28;20179;-76
2023/12/03 09:45:56;;;;;;;14.27;12.30;;;;;;;0.00;100.00;101117.38;5049272;28;20192;-76
2023/12/03 09:48:22;;;;;;;14.87;12.73;;;;;;;0.05;100.00;101110.81;5055627;28;20184;-76
2023/12/03 09:50:50;;;;;;;14.47;12.97;;;;;;;0.09;100.00;101110.19;5059925;28;20575;-76
2023/12/03 09:53:20;;;;;;;15.53;13.73;;;;;;;0.12;100.00;101106.88;5057310;28;20669;-75
2023/12/03 09:55:46;;;;;;;14.57;13.03;;;;;;;0.15;100.00;101110.44;5060001;28;20194;-75
2023/12/03 09:58:15;;;;;;;13.37;11.97;;;;;;;0.15;100.00;101109.59;5059210;28;20541;-77
2023/12/03 10:00:41;;;;;;;15.10;13.50;;;;;;;0.14;100.00;101106.19;5063047;28;20204;-76
2023/12/03 10:03:08;;;;;;;16.27;14.50;;;;;;;0.17;100.00;101102.00;5059561;28;20277;-76
2023/12/03 10:05:34;;;;;;;18.73;14.70;;;;;;;0.23;100.00;101099.75;5061981;28;20200;-76
2023/12/03 10:08:00;;;;;;;17.27;14.93;;;;;;;0.27;100.00;101097.41;5087889;28;20285;-77
2023/12/03 10:10:30;;;;;;;15.77;14.13;;;;;;;0.32;100.00;101100.16;5077195;28;20209;-76
2023/12/03 10:12:56;;;;;;;15.50;13.87;;;;;;;0.36;100.00;101102.06;5058143;28;20569;-76
2023/12/03 10:15:21;;;;;;;17.83;15.63;;;;;;;0.38;100.00;101097.06;5059031;28;20267;-76
2023/12/03 10:17:49;;;;;;;18.23;14.87;;;;;;;0.39;100.00;101098.78;5060283;28;21108;-76
2023/12/03 10:20:22;;;;;;;17.20;14.27;;;;;;;0.41;100.00;101098.06;5057330;28;20201;-76
2023/12/03 10:22:49;;;;;;;17.73;15.07;;;;;;;0.46;100.00;101098.25;5055457;28;20259;-75
2023/12/03 10:25:46;;;;;;;16.13;14.17;;;;;;;0.48;100.00;101089.03;5051524;28;20185;-76
2023/12/03 10:28:11;;;;;;;18.67;14.93;;;;;;;0.51;100.00;101089.16;5033231;28;20211;-77
2023/12/03 10:30:37;;;;;;;16.50;14.00;;;;;;;0.54;100.00;101091.81;5053597;28;20244;-76
2023/12/03 10:33:04;;;;;;;14.93;13.30;;;;;;;0.60;100.00;101081.94;5054703;28;20197;-76
2023/12/03 10:35:37;;;;;;;13.03;11.70;;;;;;;0.68;100.00;101078.88;5057977;28;20192;-76
2023/12/03 10:38:07;;;;;;;15.90;13.77;;;;;;;0.78;100.00;101087.75;5058284;28;20189;-76
2023/12/03 10:40:36;;;;;;;15.10;13.53;;;;;;;0.82;100.00;101071.81;5060763;28;20262;-77
2023/12/03 10:43:02;;;;;;;15.27;13.67;;;;;;;0.85;100.00;101066.84;5057044;28;20288;-75
2023/12/03 10:45:28;;;;;;;15.20;13.60;;;;;;;0.89;100.00;101066.19;5056627;28;20748;-76
2023/12/03 10:47:58;;;;;;;16.03;14.33;;;;;;;0.94;100.00;101057.03;5056999;28;20829;-77
2023/12/03 10:50:25;;;;;;;17.03;15.33;;;;;;;0.99;100.00;101054.69;5053601;28;20253;-76
2023/12/03 10:52:51;;;;;;;15.37;13.73;;;;;;;1.04;100.00;101058.31;5053926;28;20233;-76
2023/12/03 10:55:17;;;;;;;14.27;12.77;;;;;;;1.07;100.00;101058.44;5058040;28;20775;-77